OERR

Arar Domestic Airport

Arar, Saudi Arabia
TAF OERR 252300Z 2600/2706 24010KT 6000 SCT040 SCT100 TEMPO 2600/2612 VRB20KT 3000 BLDU TSRA FEW035CB BKN040 BECMG 2606/2608 14014KT PROB30 TEMPO 2606/2612 1000
Issued Valid From Valid To
Apr-25 @ 23:00 UTC
(7 hours ago)
Apr-26 @ 00:00 UTC
(6 hours ago)
Apr-27 @ 06:00 UTC
(in 24 hours)
Apr-26 @ 00:00 to Apr-26 @ 06:00
TAF OERR 252300Z 2600/2706 24010KT 6000 SCT040 SCT100
Wind Visibility Clouds
240° at 10 knots 6,003 meters
  • Scattered at 4,000' AGL
  • Scattered at 10,000' AGL
Temporary Apr-26 @ 00:00 to Apr-26 @ 12:00
TEMPO 2600/2612 VRB20KT 3000 BLDU TSRA FEW035CB BKN040
Wind Visibility Clouds Conditions
Variable at 20 knots 2,993 meters
  • Few at 3,500' AGL
  • Broken at 4,000' AGL
  • Blowing
  • Dust
  • Thunderstorm
  • Rain
Temporary  (Probability 30%) Apr-26 @ 06:00 to Apr-26 @ 12:00
PROB30 TEMPO 2606/2612 1000
Visibility
998 meters
Becoming Apr-26 @ 06:00 to Apr-27 @ 06:00
BECMG 2606/2608 14014KT
Wind Visibility Clouds
140° at 14 knots 6,003 meters
  • Scattered at 4,000' AGL
  • Scattered at 10,000' AGL
TAF OERR 252300Z 2600/2706 24010KT 6000 SCT040 SCT100 TEMPO 2600/2612 VRB20KT 3000 BLDU TSRA FEW035CB BKN040 BECMG 2606/2608 14014KT PROB30 TEMPO 2606/2612 1000
Issued Apr-25 @ 23:00 UTC
(7 hours ago)
Valid From Apr-26 @ 00:00 UTC
(6 hours ago)
Valid To Apr-27 @ 06:00 UTC
(in 24 hours)
Apr-26 @ 00:00 - Apr-26 @ 06:00
Wind Visibility
240° at 10 knots 6,003 meters
Clouds
  • Scattered at 4,000' AGL
  • Scattered at 10,000' AGL
Temporary Apr-26 @ 00:00 - Apr-26 @ 12:00
Wind Visibility
Variable at 20 knots 2,993 meters
Clouds
  • Few at 3,500' AGL
  • Broken at 4,000' AGL
Conditions
  • Blowing
  • Dust
  • Thunderstorm
  • Rain
Probability 30% Temporary Apr-26 @ 06:00 - Apr-26 @ 12:00
Becoming Apr-26 @ 06:00 - Apr-27 @ 06:00
Wind Visibility
140° at 14 knots 6,003 meters
Clouds
  • Scattered at 4,000' AGL
  • Scattered at 10,000' AGL